sensor_id;sensor_type;location;lat;lon;timestamp;temperature;humidity
10447;DHT22;5271;44.422;26.092;2023-05-21T00:01:03;20.50;90.40
10447;DHT22;5271;44.422;26.092;2023-05-21T00:03:30;20.50;90.40
10447;DHT22;5271;44.422;26.092;2023-05-21T00:05:58;20.50;90.40
10447;DHT22;5271;44.422;26.092;2023-05-21T00:08:26;20.50;90.40
10447;DHT22;5271;44.422;26.092;2023-05-21T00:10:54;20.50;90.40
10447;DHT22;5271;44.422;26.092;2023-05-21T00:13:20;20.50;90.40
10447;DHT22;5271;44.422;26.092;2023-05-21T00:15:47;20.50;90.40
10447;DHT22;5271;44.422;26.092;2023-05-21T00:18:14;20.50;90.40
10447;DHT22;5271;44.422;26.092;2023-05-21T00:20:41;20.50;90.50
10447;DHT22;5271;44.422;26.092;2023-05-21T00:23:08;20.50;90.60
10447;DHT22;5271;44.422;26.092;2023-05-21T00:25:35;20.40;90.60
10447;DHT22;5271;44.422;26.092;2023-05-21T00:28:04;20.40;90.70
10447;DHT22;5271;44.422;26.092;2023-05-21T00:30:30;20.40;90.70
10447;DHT22;5271;44.422;26.092;2023-05-21T00:32:57;20.40;90.70
10447;DHT22;5271;44.422;26.092;2023-05-21T00:35:27;20.40;90.70
10447;DHT22;5271;44.422;26.092;2023-05-21T00:37:54;20.40;90.70
10447;DHT22;5271;44.422;26.092;2023-05-21T00:40:21;20.30;90.80
10447;DHT22;5271;44.422;26.092;2023-05-21T00:42:48;20.30;90.80
10447;DHT22;5271;44.422;26.092;2023-05-21T00:45:16;20.30;90.80
10447;DHT22;5271;44.422;26.092;2023-05-21T00:47:43;20.30;90.80
10447;DHT22;5271;44.422;26.092;2023-05-21T00:50:12;20.30;90.80
10447;DHT22;5271;44.422;26.092;2023-05-21T00:52:40;20.30;90.80
10447;DHT22;5271;44.422;26.092;2023-05-21T00:55:08;20.30;90.90
10447;DHT22;5271;44.422;26.092;2023-05-21T00:57:36;20.20;90.90
10447;DHT22;5271;44.422;26.092;2023-05-21T01:00:04;20.20;91.10
10447;DHT22;5271;44.422;26.092;2023-05-21T01:02:35;20.20;91.20
10447;DHT22;5271;44.422;26.092;2023-05-21T01:05:02;20.10;91.30
10447;DHT22;5271;44.422;26.092;2023-05-21T01:07:30;20.10;91.30
10447;DHT22;5271;44.422;26.092;2023-05-21T01:10:00;20.10;91.30
10447;DHT22;5271;44.422;26.092;2023-05-21T01:12:29;20.10;91.20
10447;DHT22;5271;44.422;26.092;2023-05-21T01:14:57;20.20;91.20
10447;DHT22;5271;44.422;26.092;2023-05-21T01:17:26;20.20;91.20
10447;DHT22;5271;44.422;26.092;2023-05-21T01:19:56;20.20;91.20
10447;DHT22;5271;44.422;26.092;2023-05-21T01:22:24;20.20;91.20
10447;DHT22;5271;44.422;26.092;2023-05-21T01:24:54;20.20;91.20
10447;DHT22;5271;44.422;26.092;2023-05-21T01:27:21;20.20;91.20
10447;DHT22;5271;44.422;26.092;2023-05-21T01:29:48;20.20;91.30
10447;DHT22;5271;44.422;26.092;2023-05-21T01:32:20;20.20;91.30
10447;DHT22;5271;44.422;26.092;2023-05-21T01:34:54;20.20;91.20
10447;DHT22;5271;44.422;26.092;2023-05-21T01:37:26;20.20;91.20
10447;DHT22;5271;44.422;26.092;2023-05-21T01:40:04;20.20;91.30
10447;DHT22;5271;44.422;26.092;2023-05-21T01:42:35;20.20;91.30
10447;DHT22;5271;44.422;26.092;2023-05-21T01:45:05;20.20;91.30
10447;DHT22;5271;44.422;26.092;2023-05-21T01:47:35;20.20;91.30
10447;DHT22;5271;44.422;26.092;2023-05-21T01:50:04;20.10;91.30
10447;DHT22;5271;44.422;26.092;2023-05-21T01:52:31;20.10;91.30
10447;DHT22;5271;44.422;26.092;2023-05-21T01:54:59;20.10;91.30
10447;DHT22;5271;44.422;26.092;2023-05-21T01:57:26;20.10;91.40
10447;DHT22;5271;44.422;26.092;2023-05-21T01:59:53;20.10;91.40
10447;DHT22;5271;44.422;26.092;2023-05-21T02:02:20;20.00;91.50
10447;DHT22;5271;44.422;26.092;2023-05-21T02:04:47;20.00;91.50
10447;DHT22;5271;44.422;26.092;2023-05-21T02:07:14;19.90;91.60
10447;DHT22;5271;44.422;26.092;2023-05-21T02:09:42;19.90;91.60
10447;DHT22;5271;44.422;26.092;2023-05-21T02:12:11;19.80;91.70
10447;DHT22;5271;44.422;26.092;2023-05-21T02:14:37;19.80;91.80
10447;DHT22;5271;44.422;26.092;2023-05-21T02:17:04;19.80;91.90
10447;DHT22;5271;44.422;26.092;2023-05-21T02:19:32;19.80;91.90
10447;DHT22;5271;44.422;26.092;2023-05-21T02:21:59;19.80;91.90
10447;DHT22;5271;44.422;26.092;2023-05-21T02:24:26;19.70;92.00
10447;DHT22;5271;44.422;26.092;2023-05-21T02:26:53;19.70;92.00
10447;DHT22;5271;44.422;26.092;2023-05-21T02:29:22;19.70;92.10
10447;DHT22;5271;44.422;26.092;2023-05-21T02:31:48;19.70;92.10
10447;DHT22;5271;44.422;26.092;2023-05-21T02:34:16;19.70;92.00
10447;DHT22;5271;44.422;26.092;2023-05-21T02:36:44;19.70;92.00
10447;DHT22;5271;44.422;26.092;2023-05-21T02:39:12;19.70;91.90
10447;DHT22;5271;44.422;26.092;2023-05-21T02:41:40;19.70;91.90
10447;DHT22;5271;44.422;26.092;2023-05-21T02:44:06;19.70;91.90
10447;DHT22;5271;44.422;26.092;2023-05-21T02:46:34;19.70;91.90
10447;DHT22;5271;44.422;26.092;2023-05-21T02:49:01;19.70;91.90
10447;DHT22;5271;44.422;26.092;2023-05-21T02:51:28;19.70;91.90
10447;DHT22;5271;44.422;26.092;2023-05-21T02:53:56;19.70;92.00
10447;DHT22;5271;44.422;26.092;2023-05-21T02:56:22;19.70;92.00
10447;DHT22;5271;44.422;26.092;2023-05-21T02:58:50;19.70;92.00
10447;DHT22;5271;44.422;26.092;2023-05-21T03:01:17;19.70;92.00
10447;DHT22;5271;44.422;26.092;2023-05-21T03:03:45;19.70;92.00
10447;DHT22;5271;44.422;26.092;2023-05-21T03:06:12;19.70;92.00
10447;DHT22;5271;44.422;26.092;2023-05-21T03:08:40;19.60;92.00
10447;DHT22;5271;44.422;26.092;2023-05-21T03:11:07;19.60;92.00
10447;DHT22;5271;44.422;26.092;2023-05-21T03:13:34;19.60;92.10
10447;DHT22;5271;44.422;26.092;2023-05-21T03:16:01;19.60;92.00
10447;DHT22;5271;44.422;26.092;2023-05-21T03:18:28;19.60;92.00
10447;DHT22;5271;44.422;26.092;2023-05-21T03:20:56;19.60;92.20
10447;DHT22;5271;44.422;26.092;2023-05-21T03:23:23;19.50;92.20
10447;DHT22;5271;44.422;26.092;2023-05-21T03:25:50;19.50;92.20
10447;DHT22;5271;44.422;26.092;2023-05-21T03:28:17;19.50;92.30
10447;DHT22;5271;44.422;26.092;2023-05-21T03:30:44;19.40;92.30
10447;DHT22;5271;44.422;26.092;2023-05-21T03:33:11;19.40;92.30
10447;DHT22;5271;44.422;26.092;2023-05-21T03:35:38;19.50;92.30
10447;DHT22;5271;44.422;26.092;2023-05-21T03:38:07;19.50;92.30
10447;DHT22;5271;44.422;26.092;2023-05-21T03:40:33;19.50;92.30
10447;DHT22;5271;44.422;26.092;2023-05-21T03:43:00;19.50;92.20
10447;DHT22;5271;44.422;26.092;2023-05-21T03:45:27;19.50;92.20
10447;DHT22;5271;44.422;26.092;2023-05-21T03:47:54;19.50;92.20
10447;DHT22;5271;44.422;26.092;2023-05-21T03:50:21;19.50;92.50
10447;DHT22;5271;44.422;26.092;2023-05-21T03:52:48;19.50;92.30
10447;DHT22;5271;44.422;26.092;2023-05-21T03:55:16;19.50;92.30
10447;DHT22;5271;44.422;26.092;2023-05-21T03:57:43;19.50;92.40
10447;DHT22;5271;44.422;26.092;2023-05-21T04:00:10;19.50;92.30
10447;DHT22;5271;44.422;26.092;2023-05-21T04:02:38;19.50;92.30
10447;DHT22;5271;44.422;26.092;2023-05-21T04:05:06;19.50;92.40
10447;DHT22;5271;44.422;26.092;2023-05-21T04:07:32;19.50;92.40
10447;DHT22;5271;44.422;26.092;2023-05-21T04:10:03;19.40;92.50
10447;DHT22;5271;44.422;26.092;2023-05-21T04:12:31;19.40;92.80
10447;DHT22;5271;44.422;26.092;2023-05-21T04:14:58;19.30;92.60
10447;DHT22;5271;44.422;26.092;2023-05-21T04:17:27;19.30;92.80
10447;DHT22;5271;44.422;26.092;2023-05-21T04:19:54;19.30;92.90
10447;DHT22;5271;44.422;26.092;2023-05-21T04:22:21;19.20;92.90
10447;DHT22;5271;44.422;26.092;2023-05-21T04:24:51;19.10;93.10
10447;DHT22;5271;44.422;26.092;2023-05-21T04:27:19;19.10;93.00
10447;DHT22;5271;44.422;26.092;2023-05-21T04:29:49;19.10;93.20
10447;DHT22;5271;44.422;26.092;2023-05-21T04:32:16;19.10;93.30
10447;DHT22;5271;44.422;26.092;2023-05-21T04:34:43;19.10;93.30
10447;DHT22;5271;44.422;26.092;2023-05-21T04:37:10;19.10;93.20
10447;DHT22;5271;44.422;26.092;2023-05-21T04:39:37;19.10;93.20
10447;DHT22;5271;44.422;26.092;2023-05-21T04:42:05;19.10;93.20
10447;DHT22;5271;44.422;26.092;2023-05-21T04:44:35;19.20;93.20
10447;DHT22;5271;44.422;26.092;2023-05-21T04:47:03;19.20;93.40
10447;DHT22;5271;44.422;26.092;2023-05-21T04:49:30;19.20;93.20
10447;DHT22;5271;44.422;26.092;2023-05-21T04:51:59;19.20;93.20
10447;DHT22;5271;44.422;26.092;2023-05-21T04:54:26;19.20;93.20
10447;DHT22;5271;44.422;26.092;2023-05-21T04:56:53;19.20;93.20
10447;DHT22;5271;44.422;26.092;2023-05-21T04:59:20;19.20;93.20
10447;DHT22;5271;44.422;26.092;2023-05-21T05:01:47;19.20;93.10
10447;DHT22;5271;44.422;26.092;2023-05-21T05:04:15;19.20;93.20
10447;DHT22;5271;44.422;26.092;2023-05-21T05:06:42;19.30;93.20
10447;DHT22;5271;44.422;26.092;2023-05-21T05:09:09;19.30;93.20
10447;DHT22;5271;44.422;26.092;2023-05-21T05:11:35;19.30;93.30
10447;DHT22;5271;44.422;26.092;2023-05-21T05:14:02;19.20;93.30
10447;DHT22;5271;44.422;26.092;2023-05-21T05:16:29;19.20;93.40
10447;DHT22;5271;44.422;26.092;2023-05-21T05:18:56;19.20;93.40
10447;DHT22;5271;44.422;26.092;2023-05-21T05:21:24;19.10;93.40
10447;DHT22;5271;44.422;26.092;2023-05-21T05:23:51;19.10;93.50
10447;DHT22;5271;44.422;26.092;2023-05-21T05:26:18;19.10;93.50
10447;DHT22;5271;44.422;26.092;2023-05-21T05:28:46;19.10;93.70
10447;DHT22;5271;44.422;26.092;2023-05-21T05:31:13;19.10;93.80
10447;DHT22;5271;44.422;26.092;2023-05-21T05:33:40;19.00;93.80
10447;DHT22;5271;44.422;26.092;2023-05-21T05:36:07;19.00;94.00
10447;DHT22;5271;44.422;26.092;2023-05-21T05:38:35;19.00;93.90
10447;DHT22;5271;44.422;26.092;2023-05-21T05:41:02;19.10;94.00
10447;DHT22;5271;44.422;26.092;2023-05-21T05:43:29;19.00;93.90
10447;DHT22;5271;44.422;26.092;2023-05-21T05:45:56;19.00;93.90
10447;DHT22;5271;44.422;26.092;2023-05-21T05:48:22;19.00;93.90
10447;DHT22;5271;44.422;26.092;2023-05-21T05:50:49;19.00;93.90
10447;DHT22;5271;44.422;26.092;2023-05-21T05:53:19;19.00;93.90
10447;DHT22;5271;44.422;26.092;2023-05-21T05:55:47;19.00;94.00
10447;DHT22;5271;44.422;26.092;2023-05-21T05:58:14;19.00;94.00
10447;DHT22;5271;44.422;26.092;2023-05-21T06:00:41;18.90;94.10
10447;DHT22;5271;44.422;26.092;2023-05-21T06:03:08;18.90;94.10
10447;DHT22;5271;44.422;26.092;2023-05-21T06:05:36;18.90;94.10
10447;DHT22;5271;44.422;26.092;2023-05-21T06:08:03;18.90;94.10
10447;DHT22;5271;44.422;26.092;2023-05-21T06:10:30;18.90;94.10
10447;DHT22;5271;44.422;26.092;2023-05-21T06:12:59;18.90;94.00
10447;DHT22;5271;44.422;26.092;2023-05-21T06:15:26;18.90;94.10
10447;DHT22;5271;44.422;26.092;2023-05-21T06:17:53;18.90;94.10
10447;DHT22;5271;44.422;26.092;2023-05-21T06:20:19;18.90;94.10
10447;DHT22;5271;44.422;26.092;2023-05-21T06:22:46;18.90;94.10
10447;DHT22;5271;44.422;26.092;2023-05-21T06:25:13;18.90;94.10
10447;DHT22;5271;44.422;26.092;2023-05-21T06:27:40;18.90;94.10
10447;DHT22;5271;44.422;26.092;2023-05-21T06:30:09;18.90;94.10
10447;DHT22;5271;44.422;26.092;2023-05-21T06:32:36;18.90;94.10
10447;DHT22;5271;44.422;26.092;2023-05-21T06:35:03;19.00;94.20
10447;DHT22;5271;44.422;26.092;2023-05-21T06:37:30;18.90;94.10
10447;DHT22;5271;44.422;26.092;2023-05-21T06:39:57;18.90;94.10
10447;DHT22;5271;44.422;26.092;2023-05-21T06:42:24;18.90;94.20
10447;DHT22;5271;44.422;26.092;2023-05-21T06:44:51;18.90;94.20
10447;DHT22;5271;44.422;26.092;2023-05-21T06:47:19;18.80;94.30
10447;DHT22;5271;44.422;26.092;2023-05-21T06:49:46;18.80;94.60
10447;DHT22;5271;44.422;26.092;2023-05-21T06:52:12;18.90;94.40
10447;DHT22;5271;44.422;26.092;2023-05-21T06:54:39;18.90;94.40
10447;DHT22;5271;44.422;26.092;2023-05-21T06:57:07;18.90;94.40
10447;DHT22;5271;44.422;26.092;2023-05-21T06:59:33;19.00;94.40
10447;DHT22;5271;44.422;26.092;2023-05-21T07:02:00;19.00;94.30
10447;DHT22;5271;44.422;26.092;2023-05-21T07:04:28;19.00;94.30
10447;DHT22;5271;44.422;26.092;2023-05-21T07:06:55;19.00;94.40
10447;DHT22;5271;44.422;26.092;2023-05-21T07:09:23;19.00;94.30
10447;DHT22;5271;44.422;26.092;2023-05-21T07:11:50;19.00;94.40
10447;DHT22;5271;44.422;26.092;2023-05-21T07:14:17;19.00;94.40
10447;DHT22;5271;44.422;26.092;2023-05-21T07:16:44;19.00;94.50
10447;DHT22;5271;44.422;26.092;2023-05-21T07:19:11;19.00;94.50
10447;DHT22;5271;44.422;26.092;2023-05-21T07:21:39;19.10;94.80
10447;DHT22;5271;44.422;26.092;2023-05-21T07:24:06;19.10;94.60
10447;DHT22;5271;44.422;26.092;2023-05-21T07:26:33;19.10;94.60
10447;DHT22;5271;44.422;26.092;2023-05-21T07:29:00;19.10;94.60
10447;DHT22;5271;44.422;26.092;2023-05-21T07:31:27;19.20;94.60
10447;DHT22;5271;44.422;26.092;2023-05-21T07:33:53;19.20;94.60
10447;DHT22;5271;44.422;26.092;2023-05-21T07:36:20;19.30;94.70
10447;DHT22;5271;44.422;26.092;2023-05-21T07:38:49;19.30;94.60
10447;DHT22;5271;44.422;26.092;2023-05-21T07:41:15;19.50;94.50
10447;DHT22;5271;44.422;26.092;2023-05-21T07:43:42;19.60;94.30
10447;DHT22;5271;44.422;26.092;2023-05-21T07:46:09;19.60;94.30
10447;DHT22;5271;44.422;26.092;2023-05-21T07:48:36;19.60;94.20
10447;DHT22;5271;44.422;26.092;2023-05-21T07:51:03;19.70;94.20
10447;DHT22;5271;44.422;26.092;2023-05-21T07:53:30;19.70;94.20
10447;DHT22;5271;44.422;26.092;2023-05-21T07:55:59;19.70;94.20
10447;DHT22;5271;44.422;26.092;2023-05-21T07:58:26;19.70;94.30
10447;DHT22;5271;44.422;26.092;2023-05-21T08:00:52;19.60;94.40
10447;DHT22;5271;44.422;26.092;2023-05-21T08:03:19;19.60;94.30
10447;DHT22;5271;44.422;26.092;2023-05-21T08:05:46;19.60;94.30
10447;DHT22;5271;44.422;26.092;2023-05-21T08:08:15;19.60;94.40
10447;DHT22;5271;44.422;26.092;2023-05-21T08:10:41;19.70;94.40
10447;DHT22;5271;44.422;26.092;2023-05-21T08:13:10;19.70;94.60
10447;DHT22;5271;44.422;26.092;2023-05-21T08:15:37;19.70;94.30
10447;DHT22;5271;44.422;26.092;2023-05-21T08:18:04;19.80;94.30
10447;DHT22;5271;44.422;26.092;2023-05-21T08:20:31;19.90;94.20
10447;DHT22;5271;44.422;26.092;2023-05-21T08:22:59;19.90;93.90
10447;DHT22;5271;44.422;26.092;2023-05-21T08:25:25;19.90;94.00
10447;DHT22;5271;44.422;26.092;2023-05-21T08:27:53;19.90;94.00
10447;DHT22;5271;44.422;26.092;2023-05-21T08:30:21;19.90;94.00
10447;DHT22;5271;44.422;26.092;2023-05-21T08:32:48;19.90;93.90
10447;DHT22;5271;44.422;26.092;2023-05-21T08:35:15;19.90;94.00
10447;DHT22;5271;44.422;26.092;2023-05-21T08:37:42;19.90;94.10
10447;DHT22;5271;44.422;26.092;2023-05-21T08:40:10;19.90;94.10
10447;DHT22;5271;44.422;26.092;2023-05-21T08:42:41;20.00;94.00
10447;DHT22;5271;44.422;26.092;2023-05-21T08:45:10;20.10;94.00
10447;DHT22;5271;44.422;26.092;2023-05-21T08:47:40;20.10;93.90
10447;DHT22;5271;44.422;26.092;2023-05-21T08:50:09;20.10;93.80
10447;DHT22;5271;44.422;26.092;2023-05-21T08:52:36;20.20;93.60
10447;DHT22;5271;44.422;26.092;2023-05-21T08:55:03;20.20;93.70
10447;DHT22;5271;44.422;26.092;2023-05-21T08:57:31;20.20;93.70
10447;DHT22;5271;44.422;26.092;2023-05-21T08:59:58;20.20;93.60
10447;DHT22;5271;44.422;26.092;2023-05-21T09:02:26;20.30;93.70
10447;DHT22;5271;44.422;26.092;2023-05-21T09:04:56;20.50;93.60
10447;DHT22;5271;44.422;26.092;2023-05-21T09:07:24;20.60;93.60
10447;DHT22;5271;44.422;26.092;2023-05-21T09:09:55;20.70;93.70
10447;DHT22;5271;44.422;26.092;2023-05-21T09:12:23;20.80;93.40
10447;DHT22;5271;44.422;26.092;2023-05-21T09:14:51;20.90;93.10
10447;DHT22;5271;44.422;26.092;2023-05-21T09:17:18;21.10;93.10
10447;DHT22;5271;44.422;26.092;2023-05-21T09:20:09;21.20;92.90
10447;DHT22;5271;44.422;26.092;2023-05-21T09:22:38;21.40;92.40
10447;DHT22;5271;44.422;26.092;2023-05-21T09:25:07;21.50;92.20
10447;DHT22;5271;44.422;26.092;2023-05-21T09:27:34;21.70;92.00
10447;DHT22;5271;44.422;26.092;2023-05-21T09:30:02;21.80;91.80
10447;DHT22;5271;44.422;26.092;2023-05-21T09:32:29;21.90;91.80
10447;DHT22;5271;44.422;26.092;2023-05-21T09:34:56;21.90;91.80
10447;DHT22;5271;44.422;26.092;2023-05-21T09:37:24;21.90;91.70
10447;DHT22;5271;44.422;26.092;2023-05-21T09:39:52;21.90;91.70
10447;DHT22;5271;44.422;26.092;2023-05-21T09:42:19;22.00;91.50
10447;DHT22;5271;44.422;26.092;2023-05-21T09:44:47;21.90;91.50
10447;DHT22;5271;44.422;26.092;2023-05-21T09:47:18;21.90;91.50
10447;DHT22;5271;44.422;26.092;2023-05-21T09:49:46;21.90;91.70
10447;DHT22;5271;44.422;26.092;2023-05-21T09:52:13;21.90;91.50
10447;DHT22;5271;44.422;26.092;2023-05-21T09:54:51;21.90;91.50
10447;DHT22;5271;44.422;26.092;2023-05-21T09:57:23;22.00;91.30
10447;DHT22;5271;44.422;26.092;2023-05-21T09:59:50;22.20;91.30
10447;DHT22;5271;44.422;26.092;2023-05-21T10:02:18;22.20;91.30
10447;DHT22;5271;44.422;26.092;2023-05-21T10:04:48;22.20;91.30
10447;DHT22;5271;44.422;26.092;2023-05-21T10:07:17;22.20;91.20
10447;DHT22;5271;44.422;26.092;2023-05-21T10:09:46;22.20;91.30
10447;DHT22;5271;44.422;26.092;2023-05-21T10:12:17;22.10;91.30
10447;DHT22;5271;44.422;26.092;2023-05-21T10:14:46;22.10;91.40
10447;DHT22;5271;44.422;26.092;2023-05-21T10:17:15;22.20;91.40
10447;DHT22;5271;44.422;26.092;2023-05-21T10:19:43;22.30;91.30
10447;DHT22;5271;44.422;26.092;2023-05-21T10:22:12;22.30;91.10
10447;DHT22;5271;44.422;26.092;2023-05-21T10:24:42;22.30;91.20
10447;DHT22;5271;44.422;26.092;2023-05-21T10:27:10;22.30;91.20
10447;DHT22;5271;44.422;26.092;2023-05-21T10:29:40;22.30;91.50
10447;DHT22;5271;44.422;26.092;2023-05-21T10:32:11;22.50;90.90
10447;DHT22;5271;44.422;26.092;2023-05-21T10:34:38;22.60;90.80
10447;DHT22;5271;44.422;26.092;2023-05-21T10:37:07;22.80;90.80
10447;DHT22;5271;44.422;26.092;2023-05-21T10:39:35;23.00;90.90
10447;DHT22;5271;44.422;26.092;2023-05-21T10:42:13;23.20;90.40
10447;DHT22;5271;44.422;26.092;2023-05-21T10:44:55;23.40;90.30
10447;DHT22;5271;44.422;26.092;2023-05-21T10:47:38;23.50;90.00
10447;DHT22;5271;44.422;26.092;2023-05-21T10:50:27;23.50;88.80
10447;DHT22;5271;44.422;26.092;2023-05-21T10:53:03;23.50;89.10
10447;DHT22;5271;44.422;26.092;2023-05-21T10:55:41;23.50;88.80
10447;DHT22;5271;44.422;26.092;2023-05-21T11:01:31;23.20;87.40
10447;DHT22;5271;44.422;26.092;2023-05-21T11:04:00;23.20;87.50
10447;DHT22;5271;44.422;26.092;2023-05-21T11:06:27;23.20;87.30
10447;DHT22;5271;44.422;26.092;2023-05-21T11:08:54;23.20;87.30
10447;DHT22;5271;44.422;26.092;2023-05-21T11:11:39;23.20;88.10
10447;DHT22;5271;44.422;26.092;2023-05-21T11:14:29;23.30;88.60
10447;DHT22;5271;44.422;26.092;2023-05-21T11:17:01;23.50;88.90
10447;DHT22;5271;44.422;26.092;2023-05-21T11:19:41;23.70;88.10
10447;DHT22;5271;44.422;26.092;2023-05-21T11:22:19;23.80;87.60
10447;DHT22;5271;44.422;26.092;2023-05-21T11:24:47;24.00;87.70
10447;DHT22;5271;44.422;26.092;2023-05-21T11:27:29;24.00;86.80
10447;DHT22;5271;44.422;26.092;2023-05-21T11:29:56;24.00;86.50
10447;DHT22;5271;44.422;26.092;2023-05-21T11:32:24;24.00;87.20
10447;DHT22;5271;44.422;26.092;2023-05-21T11:34:51;24.00;87.50
10447;DHT22;5271;44.422;26.092;2023-05-21T11:37:23;24.10;87.10
10447;DHT22;5271;44.422;26.092;2023-05-21T11:39:52;24.10;87.00
10447;DHT22;5271;44.422;26.092;2023-05-21T11:42:32;24.10;87.30
10447;DHT22;5271;44.422;26.092;2023-05-21T11:45:00;24.10;86.20
10447;DHT22;5271;44.422;26.092;2023-05-21T11:47:30;24.10;86.70
10447;DHT22;5271;44.422;26.092;2023-05-21T11:49:58;24.10;86.10
10447;DHT22;5271;44.422;26.092;2023-05-21T11:52:28;24.10;86.20
10447;DHT22;5271;44.422;26.092;2023-05-21T11:54:55;24.10;85.90
10447;DHT22;5271;44.422;26.092;2023-05-21T11:57:24;24.00;86.30
10447;DHT22;5271;44.422;26.092;2023-05-21T11:59:55;24.00;86.10
10447;DHT22;5271;44.422;26.092;2023-05-21T12:02:24;24.00;86.20
10447;DHT22;5271;44.422;26.092;2023-05-21T12:04:53;24.10;86.40
10447;DHT22;5271;44.422;26.092;2023-05-21T12:07:26;24.10;86.10
10447;DHT22;5271;44.422;26.092;2023-05-21T12:09:54;24.10;85.80
10447;DHT22;5271;44.422;26.092;2023-05-21T12:12:21;24.10;85.50
10447;DHT22;5271;44.422;26.092;2023-05-21T12:14:49;24.00;85.70
10447;DHT22;5271;44.422;26.092;2023-05-21T12:17:18;24.00;85.50
10447;DHT22;5271;44.422;26.092;2023-05-21T12:19:46;24.00;86.00
10447;DHT22;5271;44.422;26.092;2023-05-21T12:22:14;23.90;85.30
10447;DHT22;5271;44.422;26.092;2023-05-21T12:24:42;24.00;85.10
10447;DHT22;5271;44.422;26.092;2023-05-21T12:27:11;23.90;85.10
10447;DHT22;5271;44.422;26.092;2023-05-21T12:29:42;23.90;85.30
10447;DHT22;5271;44.422;26.092;2023-05-21T12:32:10;23.90;85.60
10447;DHT22;5271;44.422;26.092;2023-05-21T12:34:41;23.80;85.80
10447;DHT22;5271;44.422;26.092;2023-05-21T12:37:10;23.80;85.80
10447;DHT22;5271;44.422;26.092;2023-05-21T12:39:39;23.80;85.90
10447;DHT22;5271;44.422;26.092;2023-05-21T12:42:07;23.80;86.20
10447;DHT22;5271;44.422;26.092;2023-05-21T12:44:34;23.80;86.20
10447;DHT22;5271;44.422;26.092;2023-05-21T12:47:01;23.70;86.20
10447;DHT22;5271;44.422;26.092;2023-05-21T12:49:37;23.70;86.40
10447;DHT22;5271;44.422;26.092;2023-05-21T12:52:07;23.70;86.40
10447;DHT22;5271;44.422;26.092;2023-05-21T12:54:36;23.70;86.70
10447;DHT22;5271;44.422;26.092;2023-05-21T12:57:09;23.70;86.60
10447;DHT22;5271;44.422;26.092;2023-05-21T12:59:50;23.70;86.30
10447;DHT22;5271;44.422;26.092;2023-05-21T13:02:22;23.80;86.10
10447;DHT22;5271;44.422;26.092;2023-05-21T13:04:54;23.80;85.90
10447;DHT22;5271;44.422;26.092;2023-05-21T13:07:22;23.80;86.00
10447;DHT22;5271;44.422;26.092;2023-05-21T13:09:49;23.70;86.00
10447;DHT22;5271;44.422;26.092;2023-05-21T13:12:19;23.70;86.40
10447;DHT22;5271;44.422;26.092;2023-05-21T13:14:47;23.70;86.60
10447;DHT22;5271;44.422;26.092;2023-05-21T13:17:14;23.60;86.60
10447;DHT22;5271;44.422;26.092;2023-05-21T13:19:41;23.60;86.80
10447;DHT22;5271;44.422;26.092;2023-05-21T13:22:07;23.60;86.80
10447;DHT22;5271;44.422;26.092;2023-05-21T13:24:36;23.60;86.90
10447;DHT22;5271;44.422;26.092;2023-05-21T13:27:04;23.70;86.80
10447;DHT22;5271;44.422;26.092;2023-05-21T13:29:32;23.70;86.70
10447;DHT22;5271;44.422;26.092;2023-05-21T13:32:02;23.60;86.30
10447;DHT22;5271;44.422;26.092;2023-05-21T13:34:29;23.60;86.30
10447;DHT22;5271;44.422;26.092;2023-05-21T13:36:56;23.60;86.30
10447;DHT22;5271;44.422;26.092;2023-05-21T13:39:23;23.70;86.40
10447;DHT22;5271;44.422;26.092;2023-05-21T13:41:52;23.80;86.20
10447;DHT22;5271;44.422;26.092;2023-05-21T13:44:19;23.70;86.10
10447;DHT22;5271;44.422;26.092;2023-05-21T13:46:47;23.70;86.20
10447;DHT22;5271;44.422;26.092;2023-05-21T13:49:14;23.70;86.20
10447;DHT22;5271;44.422;26.092;2023-05-21T13:51:41;23.80;85.70
10447;DHT22;5271;44.422;26.092;2023-05-21T13:54:08;23.90;85.70
10447;DHT22;5271;44.422;26.092;2023-05-21T13:56:34;23.90;85.90
10447;DHT22;5271;44.422;26.092;2023-05-21T13:59:01;23.80;86.00
10447;DHT22;5271;44.422;26.092;2023-05-21T14:01:28;23.80;86.00
10447;DHT22;5271;44.422;26.092;2023-05-21T14:03:57;23.70;86.20
10447;DHT22;5271;44.422;26.092;2023-05-21T14:06:29;23.70;86.40
10447;DHT22;5271;44.422;26.092;2023-05-21T14:08:57;23.70;86.50
10447;DHT22;5271;44.422;26.092;2023-05-21T14:11:24;23.70;86.50
10447;DHT22;5271;44.422;26.092;2023-05-21T14:13:51;23.70;86.50
10447;DHT22;5271;44.422;26.092;2023-05-21T14:16:18;23.70;87.10
10447;DHT22;5271;44.422;26.092;2023-05-21T14:18:47;23.70;86.60
10447;DHT22;5271;44.422;26.092;2023-05-21T14:21:15;23.70;86.80
10447;DHT22;5271;44.422;26.092;2023-05-21T14:23:42;23.60;86.80
10447;DHT22;5271;44.422;26.092;2023-05-21T14:26:09;23.60;86.90
10447;DHT22;5271;44.422;26.092;2023-05-21T14:28:36;23.60;87.10
10447;DHT22;5271;44.422;26.092;2023-05-21T14:31:03;23.60;87.00
10447;DHT22;5271;44.422;26.092;2023-05-21T14:33:30;23.70;86.90
10447;DHT22;5271;44.422;26.092;2023-05-21T14:35:57;23.80;86.60
10447;DHT22;5271;44.422;26.092;2023-05-21T14:38:25;23.80;86.70
10447;DHT22;5271;44.422;26.092;2023-05-21T14:40:53;23.80;86.80
10447;DHT22;5271;44.422;26.092;2023-05-21T14:43:20;23.80;86.90
10447;DHT22;5271;44.422;26.092;2023-05-21T14:45:48;23.80;87.00
10447;DHT22;5271;44.422;26.092;2023-05-21T14:48:15;23.80;86.70
10447;DHT22;5271;44.422;26.092;2023-05-21T14:50:43;23.90;86.60
10447;DHT22;5271;44.422;26.092;2023-05-21T14:53:10;23.90;86.80
10447;DHT22;5271;44.422;26.092;2023-05-21T14:55:39;23.90;86.90
10447;DHT22;5271;44.422;26.092;2023-05-21T14:58:06;23.90;86.50
10447;DHT22;5271;44.422;26.092;2023-05-21T15:00:33;23.90;86.80
10447;DHT22;5271;44.422;26.092;2023-05-21T15:03:01;23.90;87.10
10447;DHT22;5271;44.422;26.092;2023-05-21T15:05:29;23.90;87.10
10447;DHT22;5271;44.422;26.092;2023-05-21T15:07:57;23.80;87.30
10447;DHT22;5271;44.422;26.092;2023-05-21T15:10:24;23.80;87.50
10447;DHT22;5271;44.422;26.092;2023-05-21T15:12:53;23.70;87.50
10447;DHT22;5271;44.422;26.092;2023-05-21T15:15:20;23.70;87.70
10447;DHT22;5271;44.422;26.092;2023-05-21T15:17:47;23.60;87.80
10447;DHT22;5271;44.422;26.092;2023-05-21T15:20:15;23.60;87.90
10447;DHT22;5271;44.422;26.092;2023-05-21T15:22:42;23.60;88.00
10447;DHT22;5271;44.422;26.092;2023-05-21T15:25:09;23.60;88.10
10447;DHT22;5271;44.422;26.092;2023-05-21T15:27:36;23.60;88.00
10447;DHT22;5271;44.422;26.092;2023-05-21T15:30:05;23.70;87.90
10447;DHT22;5271;44.422;26.092;2023-05-21T15:32:32;23.80;87.10
10447;DHT22;5271;44.422;26.092;2023-05-21T15:34:59;23.90;87.40
10447;DHT22;5271;44.422;26.092;2023-05-21T15:37:26;23.90;87.30
10447;DHT22;5271;44.422;26.092;2023-05-21T15:39:56;24.00;87.40